« 基地創設60周年記念入間航空祭【B.I.編】 入間飛行場 2018/11/3 sat | トップページ | 基地創設60周年記念入間航空祭【飛行展示編2】 入間飛行場 2018/11/3 sat »

2018/11/06

基地創設60周年記念入間航空祭【飛行展示編1】 入間飛行場 2018/11/3 sat

稲荷山公園駅を降りてすぐ、なにか違うと感じました。人混みのザワザワ感が感じられません。そうです、もう開門してます。門に入る人たちも、チラホラ状態。

METAR RJTJ 022200Z VRB02KT 9999 FEW030 10/05 Q1026 RMK 1CU030 A3032

20181103_rjtj_300c130

稲荷山門手前でブーン。最初は飴ちゃんかなっと思ってましたが、よく見ると梅干し。

20181103_rjtj_301kaimon

ストレートに歩いて踏切を超えたところで、こんな状態で、歩みは進んでいます。

20181103_rjtj_302chihon

自衛官募集は、がんばらないとね。大変だ。

20181103_rjtj_303bi

松の木にファンブレイク発見

20181103_rjtj_304c1

今年は、入間基地創設60周年

METAR RJTJ 022300Z 35003KT 320V020 9999 FEW030 11/06 Q1026 RMK 1CU030 A3033

20181103_rjtj_305u393042

39-3042 U-125 FCS

20181103_rjtj_306c781026

78-1026 C-1 402SQ

今回は、こんなところに陣取

20181103_rjtj_307t165797

16-5797 T-4 CAF Z-S2

20181103_rjtj_308t365706

36-5706 T-4 CAF Z-S1

20181103_rjtj_309u853253

85-3253 U-4 CAF Z01

20181103_rjtj_310bi

ブルー列線が見えてます。

20181103_rjtj_311t365706

20181103_rjtj_312u853253

支援飛行隊のU-4は、いつの間にか無印に

20181103_rjtj_313u393042

飛行点検隊も出発準備

20181103_rjtj_314u393042

39-3042 U-125 FCS T-K2

20181103_rjtj_315ja6814

JA6814 BK-117C1 埼玉県警察

20181103_rjtj_316y121160

12-1160 YS-11FC FCS T-K1

20181103_rjtj_317u393042

来年には、新顔が加わるかな

METAR RJTJ 030000Z 01003KT 330V060 9999 FEW030 13/07 Q1027 RMK 1CU030 A3033

20181103_rjtj_318c781026

歌舞って、記念写真

20181103_rjtj_319c781026

マイクフライトも出発します

20181103_rjtj_320c781026

空挺さんが集まってきたら・・・ 歌舞伎写真やった 人気やねぇ

20181103_rjtj_321miss

ミス航空祭

20181103_rjtj_322u853253

オープニングフライトは、中空支援飛行隊

20181103_rjtj_323u853253

中空のU-4が飛ぶのは初めて?

20181103_rjtj_324u853253

20181103_rjtj_325t365706

ブレイクしてすんなり着陸です。

20181103_rjtj_326t365706

#706

20181103_rjtj_327t165797

#797

20181103_rjtj_328u853253

#253

20181103_rjtj_329t365706

列線に戻ってきました。

20181103_rjtj_330t165797

きんぎょちゃんは、ずっとなんですかね

20181103_rjtj_331y121160

飛行点検隊は、いつもの編隊

20181103_rjtj_332u853253

U-4さんも到着

20181103_rjtj_333y121160

今年も豪快に8の字描いてます

20181103_rjtj_334c781026

いよいよ歌舞伎がエンジンスタート

20181103_rjtj_335c781026

今年のマイクフライトは4機 C-1の減勢を感じます。

20181103_rjtj_336u393042

セオドライトのでデモはありませんでした。

20181103_rjtj_337c781026

歌舞くぞー

20181103_rjtj_338u393042

20181103_rjtj_339c781026

埃りを蹴立ててタクシーアウト

20181103_rjtj_340y121160

METAR RJTJ 030100Z 36005KT 320V050 9999 FEW030 15/06 Q1026 RMK 1CU030 A3032

20181103_rjtj_341y121160

来年が最後かなー

20181103_rjtj_342y121160

#160

20181103_rjtj_343u923026

百里救難隊が救難展示へ

20181103_rjtj_344u923026

キャー ひゃくりん

20181103_rjtj_345y121160

ボブさん

20181103_rjtj_346c781026

20181103_rjtj_347c781026

78-1026 C-1 402SQ C-M1

20181103_rjtj_348c681014

68-1014 C-1 402SQ C-M2

20181103_rjtj_349c781025

78-1025 C-1 402SQ C-M3

20181103_rjtj_350c181031

18-1031 C-1 402SQ C-M4

20181103_rjtj_351y121160

#160

20181103_rjtj_352u393042

#042

20181103_rjtj_353u923026

92-3026 U-125A HYAKURI-ARS J51

20181103_rjtj_354h984588

98-4588 UH-60J HYAKURI-ARS B52

20181103_rjtj_355h984588

でましたチヌたん

20181103_rjtj_356h984588

チェッカーへザバー じゃないよ

20181103_rjtj_357u293041

おや、目の前にいた機体がドナドナ

20181103_rjtj_358h984588

チヌーク チヌーク チヌーク

20181103_rjtj_359h984588

42-4490 CH-47J(LR) IRUMA-HT O20

20181103_rjtj_360h474490

おてふりぃぃ

20181103_rjtj_361u923026

そつなく救難展示

20181103_rjtj_362h984588

収容

20181103_rjtj_363h984588

#588

20181103_rjtj_364u923026

#026

20181103_rjtj_365h984588

20181103_rjtj_366t465719

その間にシルバーさんスタート

20181103_rjtj_367t465719

準備オーケー

その2に続く

|

« 基地創設60周年記念入間航空祭【B.I.編】 入間飛行場 2018/11/3 sat | トップページ | 基地創設60周年記念入間航空祭【飛行展示編2】 入間飛行場 2018/11/3 sat »

入間飛行場」カテゴリの記事

コメント

コメントを書く



(ウェブ上には掲載しません)


コメントは記事投稿者が公開するまで表示されません。



トラックバック


この記事へのトラックバック一覧です: 基地創設60周年記念入間航空祭【飛行展示編1】 入間飛行場 2018/11/3 sat:

« 基地創設60周年記念入間航空祭【B.I.編】 入間飛行場 2018/11/3 sat | トップページ | 基地創設60周年記念入間航空祭【飛行展示編2】 入間飛行場 2018/11/3 sat »